Time;durP1;ratioP1;P1;durP2;ratioP2;P2;SDS_P1;SDS_P2;PMS_P1;PMS_P2;Temp;Humidity;BMP_temperature;BMP_pressure;BME280_temperature;BME280_humidity;BME280_pressure;Samples;Min_cycle;Max_cycle;Signal;HPM_P1;HPM_P2
2023/02/15 00:01:06;;;;;;;;;;;2.60;99.90;;;;;;5077323;28;19927;-59
2023/02/15 00:03:33;;;;;;;;;;;2.60;99.90;;;;;;5076849;28;19920;-58
2023/02/15 00:06:00;;;;;;;;;;;2.60;99.90;;;;;;5077243;28;19920;-59
2023/02/15 00:08:28;;;;;;;;;;;2.60;99.90;;;;;;5076988;28;19943;-59
2023/02/15 00:11:05;;;;;;;;;;;2.70;99.90;;;;;;5076084;28;19932;-58
2023/02/15 00:13:32;;;;;;;;;;;2.70;99.90;;;;;;5075760;28;19994;-58
2023/02/15 00:16:01;;;;;;;;;;;2.60;99.90;;;;;;5074685;28;19927;-59
2023/02/15 00:18:28;;;;;;;;;;;2.60;99.90;;;;;;5075495;28;19927;-59
2023/02/15 00:20:55;;;;;;;;;;;2.60;99.90;;;;;;5076820;28;19935;-59
2023/02/15 00:23:21;;;;;;;;;;;2.60;99.90;;;;;;5076648;28;19920;-59
2023/02/15 00:25:50;;;;;;;;;;;2.60;99.90;;;;;;5077033;28;19927;-59
2023/02/15 00:28:16;;;;;;;;;;;2.60;99.90;;;;;;5076269;28;19920;-59
2023/02/15 00:30:43;;;;;;;;;;;2.50;99.90;;;;;;5076968;28;19920;-56
2023/02/15 00:33:10;;;;;;;;;;;2.40;99.90;;;;;;5076351;28;20316;-59
2023/02/15 00:35:37;;;;;;;;;;;2.30;99.90;;;;;;5075840;28;19927;-57
2023/02/15 00:38:04;;;;;;;;;;;2.20;99.90;;;;;;5076321;28;19927;-59
2023/02/15 00:40:30;;;;;;;;;;;2.30;99.90;;;;;;5074724;28;19920;-58
2023/02/15 00:42:59;;;;;;;;;;;2.30;99.90;;;;;;5075266;28;19921;-59
2023/02/15 00:45:26;;;;;;;;;;;2.30;99.90;;;;;;5076224;28;19925;-58
2023/02/15 00:47:53;;;;;;;;;;;2.30;99.90;;;;;;5076217;28;19920;-58
2023/02/15 00:50:20;;;;;;;;;;;2.30;99.90;;;;;;5075427;28;19927;-56
2023/02/15 00:52:46;;;;;;;;;;;2.30;99.90;;;;;;5076704;28;19942;-58
2023/02/15 00:55:13;;;;;;;;;;;2.30;99.90;;;;;;5075985;28;19920;-60
2023/02/15 00:57:40;;;;;;;;;;;2.20;99.90;;;;;;5076301;28;19924;-58
2023/02/15 01:00:09;;;;;;;;;;;2.20;99.90;;;;;;5076424;28;19932;-58
2023/02/15 01:02:36;;;;;;;;;;;2.30;99.90;;;;;;5075783;28;19920;-57
2023/02/15 01:05:03;;;;;;;;;;;2.30;99.90;;;;;;5075139;28;19920;-58
2023/02/15 01:07:30;;;;;;;;;;;2.30;99.90;;;;;;5075726;28;19959;-57
2023/02/15 01:09:57;;;;;;;;;;;2.40;99.90;;;;;;5075710;28;19947;-58
2023/02/15 01:12:23;;;;;;;;;;;2.40;99.90;;;;;;5075990;28;19927;-57
2023/02/15 01:14:50;;;;;;;;;;;2.40;99.90;;;;;;5075825;28;19943;-59
2023/02/15 01:17:18;;;;;;;;;;;2.40;99.90;;;;;;5075772;28;19927;-59
2023/02/15 01:19:45;;;;;;;;;;;2.40;99.90;;;;;;5075662;28;19931;-57
2023/02/15 01:22:12;;;;;;;;;;;2.40;99.90;;;;;;5075851;28;20297;-58
2023/02/15 01:24:39;;;;;;;;;;;2.30;99.90;;;;;;5075306;28;19921;-56
2023/02/15 01:27:06;;;;;;;;;;;2.30;99.90;;;;;;5075534;28;19920;-58
2023/02/15 01:29:32;;;;;;;;;;;2.20;99.90;;;;;;5074328;28;20046;-59
2023/02/15 01:31:59;;;;;;;;;;;2.20;99.90;;;;;;5075570;28;20236;-58
2023/02/15 01:34:27;;;;;;;;;;;2.30;99.90;;;;;;5075899;28;19921;-59
2023/02/15 01:36:54;;;;;;;;;;;2.30;99.90;;;;;;5075663;28;20339;-59
2023/02/15 01:39:21;;;;;;;;;;;2.20;99.90;;;;;;5075472;28;20096;-59
2023/02/15 01:41:48;;;;;;;;;;;2.20;99.90;;;;;;5078865;28;20326;-58
2023/02/15 01:44:36;;;;;;;;;;;2.10;99.90;;;;;;5079407;28;19920;-56
2023/02/15 01:47:02;;;;;;;;;;;2.10;99.90;;;;;;5079476;28;19923;-58
2023/02/15 01:49:33;;;;;;;;;;;2.10;99.90;;;;;;5078765;28;19920;-58
2023/02/15 01:52:00;;;;;;;;;;;2.10;99.90;;;;;;5079204;28;20304;-58
2023/02/15 01:54:30;;;;;;;;;;;2.10;99.90;;;;;;5078558;28;19920;-58
2023/02/15 01:56:59;;;;;;;;;;;2.10;99.90;;;;;;5079559;28;19920;-58
2023/02/15 01:59:26;;;;;;;;;;;2.10;99.90;;;;;;5079556;28;19924;-59
2023/02/15 02:01:55;;;;;;;;;;;2.10;99.90;;;;;;5079147;28;20351;-58
2023/02/15 02:04:24;;;;;;;;;;;2.20;99.90;;;;;;5079685;28;20331;-57
2023/02/15 02:06:53;;;;;;;;;;;2.30;99.90;;;;;;5078847;28;19920;-58
2023/02/15 02:09:19;;;;;;;;;;;2.30;99.90;;;;;;5079221;28;19926;-58
2023/02/15 02:11:48;;;;;;;;;;;2.40;99.90;;;;;;5079249;28;19924;-57
2023/02/15 02:14:15;;;;;;;;;;;2.40;99.90;;;;;;5077798;28;20258;-58
2023/02/15 02:16:48;;;;;;;;;;;2.30;99.90;;;;;;5078769;28;20323;-58
2023/02/15 02:19:35;;;;;;;;;;;2.10;99.90;;;;;;5078352;28;19987;-59
2023/02/15 02:22:27;;;;;;;;;;;2.00;99.90;;;;;;5078994;28;19927;-58
2023/02/15 02:25:04;;;;;;;;;;;1.90;99.90;;;;;;5078718;28;19948;-57
2023/02/15 02:27:34;;;;;;;;;;;1.80;99.90;;;;;;5079327;28;19924;-58
2023/02/15 02:30:28;;;;;;;;;;;1.80;99.90;;;;;;5078449;28;19920;-59
2023/02/15 02:33:04;;;;;;;;;;;1.90;99.90;;;;;;5078697;28;19924;-59
2023/02/15 02:35:32;;;;;;;;;;;2.00;99.90;;;;;;5079040;28;19920;-58
2023/02/15 02:38:04;;;;;;;;;;;2.00;99.90;;;;;;5079056;28;19943;-58
2023/02/15 02:40:36;;;;;;;;;;;2.00;99.90;;;;;;5078713;28;19931;-57
2023/02/15 02:43:06;;;;;;;;;;;2.00;99.90;;;;;;5079463;28;19920;-58
2023/02/15 02:45:36;;;;;;;;;;;2.00;99.90;;;;;;5079084;28;19920;-57
2023/02/15 02:48:08;;;;;;;;;;;2.00;99.90;;;;;;5078765;28;19921;-57
2023/02/15 02:50:35;;;;;;;;;;;2.00;99.90;;;;;;5077506;28;19920;-59
2023/02/15 02:53:02;;;;;;;;;;;2.00;99.90;;;;;;5078016;28;19931;-59
2023/02/15 02:55:31;;;;;;;;;;;2.00;99.90;;;;;;5078478;28;19931;-59
2023/02/15 02:58:00;;;;;;;;;;;1.90;99.90;;;;;;5078232;28;19966;-58
2023/02/15 03:00:28;;;;;;;;;;;2.00;99.90;;;;;;5078728;28;19920;-58
2023/02/15 03:03:04;;;;;;;;;;;2.00;99.90;;;;;;5078311;28;19931;-58
2023/02/15 03:05:34;;;;;;;;;;;2.00;99.90;;;;;;5078384;28;19931;-58
2023/02/15 03:08:05;;;;;;;;;;;2.00;99.90;;;;;;5078198;28;19927;-57
2023/02/15 03:10:33;;;;;;;;;;;2.10;99.90;;;;;;5078102;28;19920;-58
2023/02/15 03:13:00;;;;;;;;;;;2.00;99.90;;;;;;5077294;28;19927;-59
2023/02/15 03:16:25;;;;;;;;;;;2.00;99.90;;;;;;5077357;28;19925;-58
2023/02/15 03:18:17;;;;;;;;;;;1.90;99.90;;;;;;5077073;28;19927;-58
2023/02/15 03:20:46;;;;;;;;;;;1.80;99.90;;;;;;5076636;28;20327;-57
2023/02/15 03:23:14;;;;;;;;;;;1.80;99.90;;;;;;5077928;28;19974;-55
2023/02/15 03:25:42;;;;;;;;;;;1.70;99.90;;;;;;5077250;28;19983;-58
2023/02/15 03:28:11;;;;;;;;;;;1.70;99.90;;;;;;5076055;28;19991;-58
2023/02/15 03:30:39;;;;;;;;;;;1.70;99.90;;;;;;5077438;28;19943;-57
2023/02/15 03:33:06;;;;;;;;;;;1.60;99.90;;;;;;5077799;28;19920;-58
2023/02/15 03:35:37;;;;;;;;;;;1.60;99.90;;;;;;5078037;28;19927;-57
2023/02/15 03:38:07;;;;;;;;;;;1.50;99.90;;;;;;5077614;28;20338;-57
2023/02/15 03:43:25;;;;;;;;;;;1.30;99.90;;;;;;5076852;28;19924;-57
2023/02/15 03:45:55;;;;;;;;;;;1.40;99.90;;;;;;5077436;28;19928;-56
2023/02/15 03:48:24;;;;;;;;;;;1.40;99.90;;;;;;5077009;28;19924;-56
2023/02/15 03:53:38;;;;;;;;;;;1.30;99.90;;;;;;5076969;28;19970;-58
2023/02/15 03:56:05;;;;;;;;;;;1.30;99.90;;;;;;5077092;28;20304;-58
2023/02/15 04:04:08;;;;;;;;;;;1.30;99.90;;;;;;5061787;28;19928;-58
2023/02/15 04:06:34;;;;;;;;;;;1.30;99.90;;;;;;5072604;28;19928;-60
2023/02/15 04:11:47;;;;;;;;;;;1.40;99.90;;;;;;5055719;28;19927;-58
2023/02/15 04:16:58;;;;;;;;;;;1.50;99.90;;;;;;5054887;28;19928;-58
2023/02/15 04:25:11;;;;;;;;;;;1.50;99.90;;;;;;5055626;28;19947;-58
2023/02/15 04:27:38;;;;;;;;;;;1.50;99.90;;;;;;5065166;28;20286;-59
2023/02/15 04:30:11;;;;;;;;;;;1.50;99.90;;;;;;5074789;28;19920;-56
2023/02/15 04:32:38;;;;;;;;;;;1.40;99.90;;;;;;5075052;28;19920;-57
2023/02/15 04:35:05;;;;;;;;;;;1.40;99.90;;;;;;5074797;28;19924;-58
2023/02/15 04:37:32;;;;;;;;;;;1.40;99.90;;;;;;5073441;28;19924;-57
2023/02/15 04:40:00;;;;;;;;;;;1.40;99.90;;;;;;5075341;28;20219;-57
2023/02/15 04:42:28;;;;;;;;;;;1.30;99.90;;;;;;5076327;28;19920;-58
2023/02/15 04:44:55;;;;;;;;;;;1.30;99.90;;;;;;5076427;28;19927;-58
2023/02/15 04:47:22;;;;;;;;;;;1.30;99.90;;;;;;5076133;28;19921;-58
2023/02/15 04:49:49;;;;;;;;;;;1.30;99.90;;;;;;5075842;28;19920;-58
2023/02/15 04:52:17;;;;;;;;;;;1.30;99.90;;;;;;5075863;28;19928;-55
2023/02/15 04:54:43;;;;;;;;;;;1.30;99.90;;;;;;5075958;28;20010;-60
2023/02/15 04:57:12;;;;;;;;;;;1.20;99.90;;;;;;5076184;28;20209;-56
2023/02/15 04:59:39;;;;;;;;;;;1.20;99.90;;;;;;5074667;28;19920;-58
2023/02/15 05:02:05;;;;;;;;;;;1.20;99.90;;;;;;5074741;28;20340;-59
2023/02/15 05:04:32;;;;;;;;;;;1.20;99.90;;;;;;5074754;28;19920;-57
2023/02/15 05:06:59;;;;;;;;;;;1.10;99.90;;;;;;5075042;28;19928;-59
2023/02/15 05:09:26;;;;;;;;;;;1.00;99.90;;;;;;5075627;28;19928;-59
2023/02/15 05:11:53;;;;;;;;;;;0.90;99.90;;;;;;5075474;28;20313;-58
2023/02/15 05:14:21;;;;;;;;;;;0.90;99.90;;;;;;5073731;28;19920;-58
2023/02/15 05:16:48;;;;;;;;;;;0.90;99.90;;;;;;5074575;28;20562;-58
2023/02/15 05:19:15;;;;;;;;;;;0.90;99.90;;;;;;5072943;28;19928;-59
2023/02/15 05:21:42;;;;;;;;;;;1.00;99.90;;;;;;5074746;28;19928;-57
2023/02/15 05:29:35;;;;;;;;;;;1.20;99.90;;;;;;5071637;28;20425;-57
2023/02/15 05:32:03;;;;;;;;;;;1.30;99.90;;;;;;5073723;28;19920;-57
2023/02/15 05:34:30;;;;;;;;;;;1.30;99.90;;;;;;5073728;28;19924;-59
2023/02/15 05:36:57;;;;;;;;;;;1.20;99.90;;;;;;5072871;28;19920;-56
2023/02/15 05:39:24;;;;;;;;;;;1.20;99.90;;;;;;5073663;28;19927;-57
2023/02/15 05:41:51;;;;;;;;;;;1.10;99.90;;;;;;5073621;28;19924;-58
2023/02/15 05:44:18;;;;;;;;;;;1.00;99.90;;;;;;5072966;28;20397;-59
2023/02/15 05:46:46;;;;;;;;;;;0.80;99.90;;;;;;5074099;28;20244;-59
2023/02/15 05:49:13;;;;;;;;;;;0.70;99.90;;;;;;5073762;28;19924;-59
2023/02/15 05:51:39;;;;;;;;;;;0.80;99.90;;;;;;5072883;28;19921;-59
2023/02/15 05:54:06;;;;;;;;;;;0.90;99.90;;;;;;5074870;28;20274;-59
2023/02/15 05:56:33;;;;;;;;;;;0.90;99.90;;;;;;5075319;28;19928;-58
2023/02/15 05:59:01;;;;;;;;;;;1.00;99.90;;;;;;5073807;28;19947;-57
2023/02/15 06:01:28;;;;;;;;;;;1.10;99.90;;;;;;5071007;28;19924;-58
2023/02/15 06:03:56;;;;;;;;;;;1.20;99.90;;;;;;5073935;28;19924;-59
2023/02/15 06:06:23;;;;;;;;;;;1.20;99.90;;;;;;5074821;28;20289;-58
2023/02/15 06:08:50;;;;;;;;;;;1.10;99.90;;;;;;5072115;28;19921;-58
2023/02/15 06:11:17;;;;;;;;;;;1.20;99.90;;;;;;5070547;28;19924;-58
2023/02/15 06:13:43;;;;;;;;;;;1.10;99.90;;;;;;5072659;28;19927;-59
2023/02/15 06:16:10;;;;;;;;;;;1.00;99.90;;;;;;5074422;28;20313;-59
2023/02/15 06:18:37;;;;;;;;;;;0.90;99.90;;;;;;5073564;28;20296;-58
2023/02/15 06:21:05;;;;;;;;;;;0.80;99.90;;;;;;5071736;28;20232;-58
2023/02/15 06:23:32;;;;;;;;;;;0.70;99.90;;;;;;5072048;28;19920;-57
2023/02/15 06:25:59;;;;;;;;;;;0.60;99.90;;;;;;5071310;28;19920;-57
2023/02/15 06:28:26;;;;;;;;;;;0.60;99.90;;;;;;5075171;28;19920;-58
2023/02/15 06:30:53;;;;;;;;;;;0.60;99.90;;;;;;5074274;28;20021;-59
2023/02/15 06:33:19;;;;;;;;;;;0.70;99.90;;;;;;5074532;28;19927;-57
2023/02/15 06:35:46;;;;;;;;;;;0.70;99.90;;;;;;5075848;28;20327;-60
2023/02/15 06:38:15;;;;;;;;;;;0.60;99.90;;;;;;5074483;28;20365;-57
2023/02/15 06:40:42;;;;;;;;;;;0.40;99.90;;;;;;5076929;28;19927;-57
2023/02/15 06:43:08;;;;;;;;;;;0.30;99.90;;;;;;5075628;28;19951;-58
2023/02/15 06:45:35;;;;;;;;;;;0.10;99.90;;;;;;5073479;28;19921;-59
2023/02/15 06:48:02;;;;;;;;;;;0.00;99.90;;;;;;5074899;28;19928;-57
2023/02/15 06:50:29;;;;;;;;;;;0.20;99.90;;;;;;5075867;28;19921;-58
2023/02/15 06:52:56;;;;;;;;;;;0.20;99.90;;;;;;5076997;28;20288;-57
2023/02/15 06:55:25;;;;;;;;;;;0.30;99.90;;;;;;5073924;28;19924;-57
2023/02/15 06:57:51;;;;;;;;;;;0.30;99.90;;;;;;5075589;28;20273;-56
2023/02/15 07:00:18;;;;;;;;;;;0.30;99.90;;;;;;5076118;28;19920;-57
2023/02/15 07:02:45;;;;;;;;;;;0.20;99.90;;;;;;5075207;28;19920;-57
2023/02/15 07:05:12;;;;;;;;;;;0.30;99.90;;;;;;5074930;28;19924;-57
2023/02/15 07:07:39;;;;;;;;;;;0.60;99.90;;;;;;5075955;28;19920;-56
2023/02/15 07:10:07;;;;;;;;;;;0.70;99.90;;;;;;5075455;28;19927;-57
2023/02/15 07:12:44;;;;;;;;;;;0.60;99.90;;;;;;5076931;28;19920;-57
2023/02/15 07:15:11;;;;;;;;;;;0.40;99.90;;;;;;5072869;28;20096;-59
2023/02/15 07:17:39;;;;;;;;;;;0.40;99.90;;;;;;5075554;28;19920;-60
2023/02/15 07:20:07;;;;;;;;;;;0.30;99.90;;;;;;5072512;28;19920;-59
2023/02/15 07:22:35;;;;;;;;;;;0.30;99.90;;;;;;5073422;28;19920;-58
2023/02/15 07:25:03;;;;;;;;;;;0.40;99.90;;;;;;5074379;28;20175;-58
2023/02/15 07:27:30;;;;;;;;;;;0.40;99.90;;;;;;5072459;28;19921;-58
2023/02/15 07:29:58;;;;;;;;;;;0.20;99.90;;;;;;5072487;28;20241;-59
2023/02/15 07:32:27;;;;;;;;;;;0.10;99.90;;;;;;5072715;28;19921;-58
2023/02/15 07:34:54;;;;;;;;;;;0.10;99.90;;;;;;5073618;28;19928;-58
2023/02/15 07:37:21;;;;;;;;;;;0.10;99.90;;;;;;5074912;28;19920;-58
2023/02/15 07:39:48;;;;;;;;;;;0.00;99.90;;;;;;5071587;28;19920;-58
2023/02/15 07:42:15;;;;;;;;;;;-0.10;99.90;;;;;;5072168;28;20236;-59
2023/02/15 07:44:41;;;;;;;;;;;0.00;99.90;;;;;;5072601;28;19920;-59
2023/02/15 07:47:10;;;;;;;;;;;0.10;99.90;;;;;;5069387;28;19966;-59
2023/02/15 07:49:36;;;;;;;;;;;0.20;99.90;;;;;;5070782;28;19920;-59
2023/02/15 07:52:03;;;;;;;;;;;0.30;99.90;;;;;;5072708;28;19928;-59
2023/02/15 07:54:30;;;;;;;;;;;0.40;99.90;;;;;;5071476;28;19948;-59
2023/02/15 07:56:57;;;;;;;;;;;0.20;99.90;;;;;;5075153;28;19927;-59
2023/02/15 07:59:24;;;;;;;;;;;0.20;99.90;;;;;;5072752;28;19924;-59
2023/02/15 08:01:52;;;;;;;;;;;0.30;99.90;;;;;;5071572;28;19920;-59
2023/02/15 08:04:21;;;;;;;;;;;0.30;99.90;;;;;;5071792;28;19924;-59
2023/02/15 08:06:47;;;;;;;;;;;0.30;99.90;;;;;;5083927;28;20558;-59
2023/02/15 08:09:14;;;;;;;;;;;0.50;99.90;;;;;;5041049;28;19927;-59
2023/02/15 08:11:41;;;;;;;;;;;0.70;99.90;;;;;;5081456;28;19927;-59
2023/02/15 08:14:09;;;;;;;;;;;0.90;99.90;;;;;;5080311;28;19935;-59
2023/02/15 08:16:37;;;;;;;;;;;0.90;99.90;;;;;;5073896;28;19928;-59
2023/02/15 08:19:05;;;;;;;;;;;1.10;99.90;;;;;;5062976;28;20247;-59
2023/02/15 08:21:33;;;;;;;;;;;1.30;99.90;;;;;;5072199;28;19920;-59
2023/02/15 08:24:00;;;;;;;;;;;1.40;99.90;;;;;;5061823;28;20335;-59
2023/02/15 08:26:28;;;;;;;;;;;1.50;99.90;;;;;;5058974;28;19920;-59
2023/02/15 08:28:55;;;;;;;;;;;1.40;99.90;;;;;;5068435;28;20595;-59
2023/02/15 08:31:22;;;;;;;;;;;1.50;99.90;;;;;;5074710;28;19955;-59
2023/02/15 08:33:50;;;;;;;;;;;1.80;99.90;;;;;;5079610;28;19924;-59
2023/02/15 08:36:18;;;;;;;;;;;2.10;99.90;;;;;;5073971;28;19927;-60
2023/02/15 08:38:46;;;;;;;;;;;2.10;99.90;;;;;;5073429;28;19920;-59
2023/02/15 08:41:14;;;;;;;;;;;2.10;99.90;;;;;;5072586;28;19920;-59
2023/02/15 08:43:41;;;;;;;;;;;2.10;99.90;;;;;;5072323;28;19921;-60
2023/02/15 08:46:08;;;;;;;;;;;2.00;99.90;;;;;;5072847;28;19924;-60
2023/02/15 08:48:35;;;;;;;;;;;1.80;99.90;;;;;;5073336;28;19921;-60
2023/02/15 08:51:15;;;;;;;;;;;1.80;99.90;;;;;;5069515;28;19924;-59
2023/02/15 08:53:43;;;;;;;;;;;1.90;99.90;;;;;;5071972;28;20217;-59
2023/02/15 08:56:12;;;;;;;;;;;1.80;99.90;;;;;;5073023;28;20384;-60
2023/02/15 08:58:39;;;;;;;;;;;1.70;99.90;;;;;;5065658;28;19931;-60
2023/02/15 09:01:09;;;;;;;;;;;1.80;99.90;;;;;;5070106;28;19927;-59
2023/02/15 09:03:36;;;;;;;;;;;1.90;99.90;;;;;;5070116;28;19962;-59
2023/02/15 09:06:03;;;;;;;;;;;1.90;99.90;;;;;;5072649;28;19920;-59
2023/02/15 09:08:30;;;;;;;;;;;2.00;99.90;;;;;;5070262;28;19924;-59
2023/02/15 09:11:05;;;;;;;;;;;2.10;99.90;;;;;;5065800;28;20343;-60
2023/02/15 09:13:33;;;;;;;;;;;2.00;99.90;;;;;;5070177;28;20247;-59
2023/02/15 09:16:02;;;;;;;;;;;2.10;99.90;;;;;;5068392;28;19928;-59
2023/02/15 09:18:30;;;;;;;;;;;2.00;99.90;;;;;;5063518;28;19947;-59
2023/02/15 09:20:56;;;;;;;;;;;2.00;99.90;;;;;;5071516;28;19920;-59
2023/02/15 09:23:23;;;;;;;;;;;1.90;99.90;;;;;;5079464;28;19943;-59
2023/02/15 09:25:50;;;;;;;;;;;1.80;99.90;;;;;;5085681;28;19927;-59
2023/02/15 09:28:17;;;;;;;;;;;1.90;99.90;;;;;;5066554;28;20232;-59
2023/02/15 09:30:45;;;;;;;;;;;2.00;99.90;;;;;;5067475;28;19935;-59
2023/02/15 09:33:12;;;;;;;;;;;2.10;99.90;;;;;;5074199;28;19951;-59
2023/02/15 09:35:39;;;;;;;;;;;2.30;99.90;;;;;;5070293;28;19924;-60
2023/02/15 09:38:06;;;;;;;;;;;2.30;99.90;;;;;;5071811;28;20225;-61
2023/02/15 09:40:36;;;;;;;;;;;2.20;99.90;;;;;;5064741;28;19921;-60
2023/02/15 09:43:15;;;;;;;;;;;2.20;99.90;;;;;;5058691;28;19920;-60
2023/02/15 09:45:55;;;;;;;;;;;2.20;99.90;;;;;;5058417;28;21220;-60
2023/02/15 09:48:30;;;;;;;;;;;2.30;99.90;;;;;;5073071;28;19927;-60
2023/02/15 09:51:04;;;;;;;;;;;2.20;99.90;;;;;;5070300;28;19925;-59
2023/02/15 09:53:36;;;;;;;;;;;2.20;99.90;;;;;;5067183;28;20264;-60
2023/02/15 09:56:07;;;;;;;;;;;2.10;99.90;;;;;;5069422;28;19925;-58
2023/02/15 09:58:39;;;;;;;;;;;2.10;99.90;;;;;;5069699;28;19920;-59
2023/02/15 10:01:11;;;;;;;;;;;2.20;99.90;;;;;;5068887;28;20241;-59
2023/02/15 10:03:45;;;;;;;;;;;2.30;99.90;;;;;;5076431;28;20089;-59
2023/02/15 10:06:29;;;;;;;;;;;2.40;99.90;;;;;;5076081;28;19931;-58
2023/02/15 10:09:02;;;;;;;;;;;2.60;99.90;;;;;;5075319;28;20336;-59
2023/02/15 10:11:40;;;;;;;;;;;2.70;99.90;;;;;;5074373;28;19924;-60
2023/02/15 10:14:14;;;;;;;;;;;2.90;99.90;;;;;;5072267;28;19963;-59
2023/02/15 10:16:47;;;;;;;;;;;3.10;99.90;;;;;;5066889;28;19920;-59
2023/02/15 10:19:17;;;;;;;;;;;3.10;99.90;;;;;;5068049;28;19924;-59
2023/02/15 10:21:50;;;;;;;;;;;3.20;99.90;;;;;;5076337;28;20007;-58
2023/02/15 10:24:25;;;;;;;;;;;3.30;99.90;;;;;;5075409;28;19924;-59
2023/02/15 10:26:53;;;;;;;;;;;3.40;99.90;;;;;;5073766;28;19920;-59
2023/02/15 10:29:27;;;;;;;;;;;3.50;99.90;;;;;;5075618;28;20229;-59
2023/02/15 10:32:00;;;;;;;;;;;3.60;99.90;;;;;;5075775;28;19931;-59
2023/02/15 10:34:30;;;;;;;;;;;3.70;99.90;;;;;;5073879;28;19927;-59
2023/02/15 10:37:05;;;;;;;;;;;3.90;99.90;;;;;;5073363;28;19930;-59
2023/02/15 10:39:37;;;;;;;;;;;4.00;99.90;;;;;;5070519;28;19928;-59
2023/02/15 10:42:07;;;;;;;;;;;4.00;99.90;;;;;;5074393;28;20096;-58
2023/02/15 10:44:39;;;;;;;;;;;4.10;99.90;;;;;;5073700;28;19920;-59
2023/02/15 10:47:18;;;;;;;;;;;4.20;99.90;;;;;;5073476;28;19920;-58
2023/02/15 10:49:53;;;;;;;;;;;4.30;99.90;;;;;;5064868;28;19936;-59
2023/02/15 10:52:29;;;;;;;;;;;4.30;99.90;;;;;;5069083;28;19928;-59
2023/02/15 10:54:59;;;;;;;;;;;4.30;99.90;;;;;;5069841;28;19924;-59
2023/02/15 10:57:33;;;;;;;;;;;4.50;99.90;;;;;;5071019;28;19928;-59
2023/02/15 11:00:06;;;;;;;;;;;4.70;99.90;;;;;;5067614;28;19920;-59
2023/02/15 11:02:45;;;;;;;;;;;5.00;99.90;;;;;;5071054;28;19927;-60
2023/02/15 11:05:20;;;;;;;;;;;5.30;99.90;;;;;;5073424;28;19928;-60
2023/02/15 11:07:48;;;;;;;;;;;5.60;99.90;;;;;;5072816;28;19934;-60
2023/02/15 11:10:23;;;;;;;;;;;5.70;99.90;;;;;;5072919;28;19927;-60
2023/02/15 11:12:50;;;;;;;;;;;6.00;99.90;;;;;;5070228;28;19921;-60
2023/02/15 11:15:30;;;;;;;;;;;6.30;99.90;;;;;;5070791;28;20316;-60
2023/02/15 11:18:00;;;;;;;;;;;6.40;99.90;;;;;;5069567;28;20247;-60
2023/02/15 11:20:30;;;;;;;;;;;6.60;99.90;;;;;;5073835;28;20026;-60
2023/02/15 11:22:57;;;;;;;;;;;6.80;99.90;;;;;;5073278;28;19921;-60
2023/02/15 11:25:25;;;;;;;;;;;7.10;99.90;;;;;;5070518;28;19921;-61
2023/02/15 11:27:52;;;;;;;;;;;7.30;99.90;;;;;;5072080;28;19927;-61
2023/02/15 11:30:20;;;;;;;;;;;7.40;99.90;;;;;;5072137;28;19951;-61
2023/02/15 11:32:49;;;;;;;;;;;7.50;99.90;;;;;;5068924;28;19939;-61
2023/02/15 11:35:23;;;;;;;;;;;7.60;99.90;;;;;;5071506;28;19926;-60
2023/02/15 11:37:52;;;;;;;;;;;7.80;99.90;;;;;;5073022;28;19927;-61
2023/02/15 11:40:22;;;;;;;;;;;7.90;99.90;;;;;;5069844;28;20259;-61
2023/02/15 11:42:50;;;;;;;;;;;7.90;99.90;;;;;;5069496;28;19924;-62
2023/02/15 11:45:23;;;;;;;;;;;7.80;99.90;;;;;;5069634;28;19969;-61
2023/02/15 11:47:50;;;;;;;;;;;8.00;99.90;;;;;;5074331;28;20541;-61
2023/02/15 11:50:18;;;;;;;;;;;8.10;99.90;;;;;;5071967;28;19924;-61
2023/02/15 11:52:46;;;;;;;;;;;8.20;99.90;;;;;;5069330;28;19920;-61
2023/02/15 11:55:15;;;;;;;;;;;8.30;99.90;;;;;;5070942;28;20247;-61
2023/02/15 11:57:43;;;;;;;;;;;8.30;99.90;;;;;;5072928;28;19982;-60
2023/02/15 12:00:14;;;;;;;;;;;8.10;99.90;;;;;;5070444;28;19920;-61
2023/02/15 12:02:41;;;;;;;;;;;8.10;99.90;;;;;;5070486;28;20248;-62
2023/02/15 12:05:13;;;;;;;;;;;8.30;99.90;;;;;;5070825;28;20023;-61
2023/02/15 12:07:43;;;;;;;;;;;8.40;99.90;;;;;;5074478;28;19920;-62
2023/02/15 12:10:19;;;;;;;;;;;8.70;99.90;;;;;;5071830;28;20279;-62
2023/02/15 12:12:46;;;;;;;;;;;8.70;99.90;;;;;;5061542;28;19921;-62
2023/02/15 12:15:14;;;;;;;;;;;8.60;99.90;;;;;;5074705;28;19925;-62
2023/02/15 12:17:42;;;;;;;;;;;8.60;99.90;;;;;;5075049;28;19920;-62
2023/02/15 12:20:23;;;;;;;;;;;8.70;99.90;;;;;;5072512;28;19928;-62
2023/02/15 12:22:51;;;;;;;;;;;8.70;99.90;;;;;;5072434;28;19928;-61
2023/02/15 12:25:23;;;;;;;;;;;8.60;99.90;;;;;;5070637;28;19939;-62
2023/02/15 12:27:50;;;;;;;;;;;8.70;99.90;;;;;;5070660;28;19920;-61
2023/02/15 12:30:20;;;;;;;;;;;8.70;99.90;;;;;;5069670;28;19920;-61
2023/02/15 12:32:50;;;;;;;;;;;8.70;99.90;;;;;;5071718;28;19922;-61
2023/02/15 12:35:23;;;;;;;;;;;8.70;99.90;;;;;;5072281;28;19921;-61
2023/02/15 12:37:54;;;;;;;;;;;8.80;99.90;;;;;;5073477;28;19920;-61
2023/02/15 12:40:25;;;;;;;;;;;8.90;99.90;;;;;;5072683;28;19938;-61
2023/02/15 12:42:52;;;;;;;;;;;8.90;99.90;;;;;;5071440;28;19928;-61
2023/02/15 12:45:25;;;;;;;;;;;8.90;99.90;;;;;;5073700;28;19931;-61
2023/02/15 12:48:06;;;;;;;;;;;8.90;99.90;;;;;;5072534;28;19924;-61
2023/02/15 12:50:33;;;;;;;;;;;9.00;99.90;;;;;;5073786;28;20239;-61
2023/02/15 12:53:07;;;;;;;;;;;9.00;99.90;;;;;;5070559;28;19928;-61
2023/02/15 12:55:36;;;;;;;;;;;9.00;99.90;;;;;;5074718;28;20086;-61
2023/02/15 12:58:06;;;;;;;;;;;9.10;99.90;;;;;;5074577;28;19920;-61
2023/02/15 13:00:34;;;;;;;;;;;9.00;99.90;;;;;;5071934;28;19920;-60
2023/02/15 13:03:02;;;;;;;;;;;9.00;99.90;;;;;;5069267;28;19982;-60
2023/02/15 13:05:32;;;;;;;;;;;9.00;99.90;;;;;;5070064;28;19932;-60
2023/02/15 13:08:00;;;;;;;;;;;9.00;99.90;;;;;;5074151;28;20435;-60
2023/02/15 13:10:29;;;;;;;;;;;9.00;99.90;;;;;;5068742;28;19942;-60
2023/02/15 13:12:57;;;;;;;;;;;9.10;99.90;;;;;;5069309;28;19956;-61
2023/02/15 13:15:26;;;;;;;;;;;9.10;99.90;;;;;;5071626;28;19921;-60
2023/02/15 13:17:53;;;;;;;;;;;9.10;99.90;;;;;;5073249;28;19947;-60
2023/02/15 13:20:22;;;;;;;;;;;9.20;99.90;;;;;;5072968;28;19920;-61
2023/02/15 13:22:49;;;;;;;;;;;9.20;99.90;;;;;;5070860;28;19927;-61
2023/02/15 13:25:20;;;;;;;;;;;9.10;99.90;;;;;;5071158;28;19927;-61
2023/02/15 13:27:49;;;;;;;;;;;9.10;99.90;;;;;;5071449;28;19920;-60
2023/02/15 13:30:30;;;;;;;;;;;9.20;99.90;;;;;;5071514;28;19920;-60
2023/02/15 13:33:00;;;;;;;;;;;9.10;99.90;;;;;;5070597;28;19928;-61
2023/02/15 13:35:30;;;;;;;;;;;9.10;99.90;;;;;;5068555;28;19920;-61
2023/02/15 13:38:07;;;;;;;;;;;9.20;99.90;;;;;;5075655;28;19928;-60
2023/02/15 13:40:36;;;;;;;;;;;9.20;99.90;;;;;;5078435;28;20100;-60
2023/02/15 13:43:06;;;;;;;;;;;9.10;99.90;;;;;;5076846;28;19920;-61
2023/02/15 13:45:40;;;;;;;;;;;9.00;99.90;;;;;;5076981;28;19928;-61
2023/02/15 13:48:14;;;;;;;;;;;9.10;99.90;;;;;;5076960;28;19924;-60
2023/02/15 13:50:51;;;;;;;;;;;9.20;99.90;;;;;;5077029;28;19928;-61
2023/02/15 13:53:27;;;;;;;;;;;9.20;99.90;;;;;;5061719;28;19920;-61
2023/02/15 13:55:56;;;;;;;;;;;9.20;99.90;;;;;;5074525;28;20209;-60
2023/02/15 13:58:41;;;;;;;;;;;9.20;99.90;;;;;;5075756;28;19920;-61
2023/02/15 14:01:11;;;;;;;;;;;9.10;99.90;;;;;;5035131;28;19943;-60
2023/02/15 14:03:48;;;;;;;;;;;9.00;99.90;;;;;;5078101;28;19920;-60
2023/02/15 14:06:20;;;;;;;;;;;9.00;99.90;;;;;;5075534;28;20350;-61
2023/02/15 14:08:55;;;;;;;;;;;9.10;99.90;;;;;;5076014;28;19920;-60
2023/02/15 14:11:24;;;;;;;;;;;9.10;99.90;;;;;;5074991;28;19927;-59
2023/02/15 14:13:59;;;;;;;;;;;9.10;99.90;;;;;;5073554;28;19932;-62
2023/02/15 14:16:33;;;;;;;;;;;9.20;99.90;;;;;;5073681;28;19927;-60
2023/02/15 14:19:05;;;;;;;;;;;9.20;99.90;;;;;;5073783;28;20217;-60
2023/02/15 14:21:33;;;;;;;;;;;9.20;99.90;;;;;;5071468;28;19920;-60
2023/02/15 14:24:09;;;;;;;;;;;9.30;99.90;;;;;;5074874;28;19924;-60
2023/02/15 14:26:42;;;;;;;;;;;9.30;99.90;;;;;;5073397;28;20346;-59
2023/02/15 14:29:17;;;;;;;;;;;9.20;99.90;;;;;;5069031;28;20035;-59
2023/02/15 14:31:48;;;;;;;;;;;9.20;99.90;;;;;;5070196;28;19920;-59
2023/02/15 14:34:19;;;;;;;;;;;9.20;99.90;;;;;;5076051;28;20213;-59
2023/02/15 14:36:46;;;;;;;;;;;9.20;99.90;;;;;;5079270;28;19920;-60
2023/02/15 14:42:00;;;;;;;;;;;9.20;99.90;;;;;;5072579;28;19974;-59
2023/02/15 14:44:31;;;;;;;;;;;9.10;99.90;;;;;;5074160;28;19928;-59
2023/02/15 14:47:02;;;;;;;;;;;9.10;99.90;;;;;;5066436;28;19920;-60
2023/02/15 14:49:31;;;;;;;;;;;9.10;99.90;;;;;;5074037;28;19955;-60
2023/02/15 14:52:01;;;;;;;;;;;9.00;99.90;;;;;;5073813;28;19921;-60
2023/02/15 14:54:47;;;;;;;;;;;9.00;99.90;;;;;;5072734;28;19924;-59
2023/02/15 14:57:24;;;;;;;;;;;8.90;99.90;;;;;;5074157;28;19924;-59
2023/02/15 14:59:55;;;;;;;;;;;8.90;99.90;;;;;;5075678;28;19993;-59
2023/02/15 15:02:25;;;;;;;;;;;8.80;99.90;;;;;;5076107;28;19920;-59
2023/02/15 15:04:56;;;;;;;;;;;8.80;99.90;;;;;;5075313;28;19927;-59
2023/02/15 15:07:25;;;;;;;;;;;8.90;99.90;;;;;;5073082;28;19933;-58
2023/02/15 15:09:59;;;;;;;;;;;8.80;99.90;;;;;;5085684;28;19981;-58
2023/02/15 15:12:40;;;;;;;;;;;8.80;99.90;;;;;;5079671;28;20488;-59
2023/02/15 15:15:07;;;;;;;;;;;8.80;99.90;;;;;;5087792;28;19931;-60